FW7046 Weather Reports


Display with metric or nautical units.
time (UTC)temp
F
wind
direction
speed
MPH
gust
MPH
rain 1hr
in
rain 24hr
in
rain mn
in
humidity
%
barometer
mb
20220516205154 77 13 9.0 10.0 0.00 0.00 0.00 21 1018.4
20220516204652 78 229 5.0 8.0 0.00 0.00 0.00 21 1018.1
20220516204151 79 286 5.0 7.0 0.00 0.00 0.00 20 1018.1
20220516203651 80 66 4.0 6.0 0.00 0.00 0.00 19 1018.0
20220516203150 80 278 3.0 3.0 0.00 0.00 0.00 18 1018.2
20220516202649 80 302 1.0 1.0 0.00 0.00 0.00 19 1018.1
20220516202148 80 347 1.0 2.0 0.00 0.00 0.00 18 1017.9
20220516201647 80 334 2.0 3.0 0.00 0.00 0.00 18 1017.9
20220516201145 80 287 3.0 3.0 0.00 0.00 0.00 17 1017.9
20220516200644 81 340 3.0 5.0 0.00 0.00 0.00 18 1017.7
20220516200143 82 312 4.0 6.0 0.00 0.00 0.00 17 1017.9
20220516195643 82 300 1.0 1.0 0.00 0.00 0.00 17 1017.9
20220516195142 82 313 2.0 3.0 0.00 0.00 0.00 17 1017.7
20220516194640 83 98 1.0 2.0 0.00 0.00 0.00 18 1018.0
20220516194139 83 15 2.0 3.0 0.00 0.00 0.00 16 1017.9
20220516193639 81 271 1.0 2.0 0.00 0.00 0.00 19 1017.9
20220516193137 81 344 3.0 3.0 0.00 0.00 0.00 20 1018.1
20220516192636 81 9 2.0 3.0 0.00 0.00 0.00 17 1018.1
20220516192135 81 3 1.0 1.0 0.00 0.00 0.00 19 1018.1
20220516191633 81 296 0.0 0.0 0.00 0.00 0.00 18 1018.3
20220516191133 82 353 2.0 2.0 0.00 0.00 0.00 20 1018.2
20220516190631 82 320 2.0 2.0 0.00 0.00 0.00 18 1018.2
20220516190127 83 30 1.0 1.0 0.00 0.00 0.00 18 1017.9
20220516185626 84 84 1.0 1.0 0.00 0.00 0.00 20 1018.3
20220516185125 84 227 3.0 6.0 0.00 0.00 0.00 20 1018.4
20220516184624 82 45 3.0 3.0 0.00 0.00 0.00 20 1018.3
20220516184122 82 341 2.0 2.0 0.00 0.00 0.00 21 1018.6
20220516183623 84 23 1.0 2.0 0.00 0.00 0.00 23 1018.6
20220516183122 84 311 0.0 1.0 0.00 0.00 0.00 21 1018.8
20220516182620 84 36 1.0 2.0 0.00 0.00 0.00 20 1018.9
20220516182120 83 267 1.0 2.0 0.00 0.00 0.00 20 1018.9
20220516181619 82 330 1.0 2.0 0.00 0.00 0.00 22 1018.9
20220516181119 83 64 1.0 1.0 0.00 0.00 0.00 20 1018.9
20220516180617 84 166 1.0 1.0 0.00 0.00 0.00 21 1018.9
20220516180116 82 257 0.0 0.0 0.00 0.00 0.00 22 1018.9
20220516175616 82 256 2.0 2.0 0.00 0.00 0.00 22 1019.1
20220516175116 83 25 0.0 1.0 0.00 0.00 0.00 23 1019.3
20220516174614 82 48 2.0 2.0 0.00 0.00 0.00 23 1019.0
20220516174113 83 244 0.0 1.0 0.00 0.00 0.00 23 1019.4
20220516173612 81 320 1.0 1.0 0.00 0.00 0.00 23 1019.7
20220516173110 79 218 0.0 0.0 0.00 0.00 0.00 25 1019.7
20220516172609 80 227 0.0 0.0 0.00 0.00 0.00 24 1019.6
20220516172108 80 243 0.0 0.0 0.00 0.00 0.00 23 1019.9
20220516171608 79 130 2.0 2.0 0.00 0.00 0.00 23 1019.9
20220516171107 78 199 1.0 1.0 0.00 0.00 0.00 27 1019.9
20220516170606 78 236 1.0 1.0 0.00 0.00 0.00 26 1020.0
20220516170106 80 143 2.0 2.0 0.00 0.00 0.00 26 1020.1
20220516165606 78 234 0.0 0.0 0.00 0.00 0.00 27 1020.1
20220516165105 76 253 0.0 0.0 0.00 0.00 0.00 28 1020.1
20220516164605 76 261 1.0 1.0 0.00 0.00 0.00 28 1020.4
20220516164103 78 314 1.0 2.0 0.00 0.00 0.00 29 1020.4
20220516163602 78 309 0.0 0.0 0.00 0.00 0.00 27 1020.4
20220516163101 77 260 1.0 1.0 0.00 0.00 0.00 29 1020.8
20220516162600 74 248 0.0 1.0 0.00 0.00 0.00 32 1020.6
20220516162058 75 312 0.0 0.0 0.00 0.00 0.00 33 1020.9
20220516161556 75 159 1.0 1.0 0.00 0.00 0.00 32 1020.6
20220516161056 75 163 0.0 0.0 0.00 0.00 0.00 33 1020.9
20220516160556 73 276 1.0 1.0 0.00 0.00 0.00 35 1020.8
20220516160055 72 292 0.0 1.0 0.00 0.00 0.00 34 1021.3
20220516155555 71 271 1.0 1.0 0.00 0.00 0.00 36 1021.0
20220516155054 70 89 1.0 1.0 0.00 0.00 0.00 37 1021.3
20220516154553 69 190 1.0 2.0 0.00 0.00 0.00 38 1021.5
20220516154053 68 147 0.0 0.0 0.00 0.00 0.00 41 1021.5
20220516153552 67 250 0.0 0.0 0.00 0.00 0.00 42 1021.6
20220516153051 66 208 0.0 1.0 0.00 0.00 0.00 41 1021.6
20220516152550 64 203 0.0 1.0 0.00 0.00 0.00 44 1021.5
20220516152049 64 239 0.0 0.0 0.00 0.00 0.00 44 1021.9
20220516151547 64 252 0.0 1.0 0.00 0.00 0.00 45 1022.0
20220516151045 64 304 2.0 2.0 0.00 0.00 0.00 45 1022.0
20220516150545 63 218 0.0 1.0 0.00 0.00 0.00 46 1021.7
20220516150044 64 204 0.0 1.0 0.00 0.00 0.00 45 1021.9
20220516145543 62 263 0.0 0.0 0.00 0.00 0.00 48 1022.0
20220516145042 61 240 0.0 0.0 0.00 0.00 0.00 47 1022.0
20220516144541 61 242 0.0 0.0 0.00 0.00 0.00 48 1022.1
20220516144040 60 254 1.0 1.0 0.00 0.00 0.00 49 1021.9
20220516143540 61 250 1.0 1.0 0.00 0.00 0.00 51 1022.0
20220516143039 61 239 0.0 0.0 0.00 0.00 0.00 50 1022.3
20220516142539 61 222 1.0 1.0 0.00 0.00 0.00 49 1022.3
20220516142038 61 320 0.0 1.0 0.00 0.00 0.00 53 1022.0
20220516141537 61 244 1.0 1.0 0.00 0.00 0.00 51 1022.1
20220516141037 59 235 0.0 0.0 0.00 0.00 0.00 52 1022.3
20220516140537 57 253 0.0 0.0 0.00 0.00 0.00 57 1022.3
20220516140036 57 267 0.0 0.0 0.00 0.00 0.00 55 1022.4
20220516135535 56 262 0.0 0.0 0.00 0.00 0.00 57 1022.2
20220516135034 55 276 0.0 0.0 0.00 0.00 0.00 59 1022.4
20220516134534 55 238 0.0 0.0 0.00 0.00 0.00 63 1022.3
20220516134032 55 223 0.0 0.0 0.00 0.00 0.00 62 1022.4
20220516133531 56 269 0.0 0.0 0.00 0.00 0.00 62 1022.6
20220516133029 56 225 0.0 0.0 0.00 0.00 0.00 59 1022.7
20220516132529 56 233 0.0 0.0 0.00 0.00 0.00 58 1022.4
20220516132029 55 256 0.0 0.0 0.00 0.00 0.00 61 1022.3
20220516131528 54 242 0.0 0.0 0.00 0.00 0.00 65 1022.4
20220516131026 53 225 0.0 0.0 0.00 0.00 0.00 68 1022.6
20220516130525 51 236 0.0 0.0 0.00 0.00 0.00 68 1022.6
20220516130024 51 238 0.0 0.0 0.00 0.00 0.00 70 1022.7
20220516125523 50 221 0.0 0.0 0.00 0.00 0.00 71 1022.8
20220516125022 50 232 0.0 0.0 0.00 0.00 0.00 73 1022.7
20220516124521 49 242 0.0 0.0 0.00 0.00 0.00 73 1022.3
20220516124020 49 242 0.0 0.0 0.00 0.00 0.00 73 1022.4
20220516123519 49 261 0.0 0.0 0.00 0.00 0.00 72 1022.7
20220516123018 48 317 0.0 0.0 0.00 0.00 0.00 75 1022.4
20220516122516 46 223 0.0 0.0 0.00 0.00 0.00 77 1022.4
20220516122015 46 221 0.0 0.0 0.00 0.00 0.00 77 1022.4
20220516121514 46 221 0.0 0.0 0.00 0.00 0.00 78 1022.6
20220516121012 45 218 0.0 0.0 0.00 0.00 0.00 77 1022.8
20220516120512 45 216 0.0 0.0 0.00 0.00 0.00 78 1022.4
20220516120010 45 216 0.0 0.0 0.00 0.00 0.00 78 1022.9
20220516115509 46 215 0.0 0.0 0.00 0.00 0.00 78 1022.8
20220516115008 45 215 0.0 0.0 0.00 0.00 0.00 78 1022.7
20220516114505 45 215 0.0 0.0 0.00 0.00 0.00 78 1022.4
20220516114004 45 216 0.0 0.0 0.00 0.00 0.00 79 1022.4
20220516113503 46 216 0.0 0.0 0.00 0.00 0.00 78 1022.6
20220516113002 46 207 0.0 0.0 0.00 0.00 0.00 78 1022.6
20220516112500 46 212 0.0 0.0 0.00 0.00 0.00 78 1022.8
20220516111959 46 207 0.0 0.0 0.00 0.00 0.00 78 1022.6
20220516111458 46 212 0.0 0.0 0.00 0.00 0.00 79 1022.3
20220516110959 46 217 0.0 0.0 0.00 0.00 0.00 78 1022.6
20220516110458 46 218 0.0 0.0 0.00 0.00 0.00 78 1022.6
20220516105958 46 217 0.0 0.0 0.00 0.00 0.00 77 1022.6
20220516105458 46 210 0.0 0.0 0.00 0.00 0.00 76 1022.4
20220516104957 46 224 0.0 0.0 0.00 0.00 0.00 75 1022.8
20220516104456 46 228 0.0 0.0 0.00 0.00 0.00 76 1022.8
20220516103956 46 229 0.0 0.0 0.00 0.00 0.00 76 1022.9
20220516103455 47 221 0.0 0.0 0.00 0.00 0.00 75 1022.9
20220516102954 47 223 0.0 0.0 0.00 0.00 0.00 74 1022.4
20220516102453 47 220 0.0 0.0 0.00 0.00 0.00 74 1022.7
20220516101953 47 212 0.0 0.0 0.00 0.00 0.00 74 1022.6
20220516101452 47 221 0.0 0.0 0.00 0.00 0.00 75 1022.4
20220516100950 47 227 0.0 0.0 0.00 0.00 0.00 75 1022.7
20220516100449 47 224 0.0 0.0 0.00 0.00 0.00 73 1022.7
20220516095949 48 218 0.0 0.0 0.00 0.00 0.00 73 1022.8
20220516095448 47 224 0.0 0.0 0.00 0.00 0.00 73 1022.7
20220516094947 48 225 0.0 0.0 0.00 0.00 0.00 72 1022.8
20220516094446 48 221 0.0 0.0 0.00 0.00 0.00 73 1022.9
20220516093945 48 200 0.0 0.0 0.00 0.00 0.00 72 1022.4
20220516093443 48 199 0.0 0.0 0.00 0.00 0.00 73 1022.8
20220516092942 48 209 0.0 1.0 0.00 0.00 0.00 73 1022.7
20220516092442 48 224 0.0 0.0 0.00 0.00 0.00 73 1022.7
20220516091940 48 224 0.0 0.0 0.00 0.00 0.00 73 1022.8
20220516091439 48 221 0.0 0.0 0.00 0.00 0.00 71 1022.9
20220516090938 48 221 0.0 0.0 0.00 0.00 0.00 71 1023.0
20220516090438 49 207 0.0 0.0 0.00 0.00 0.00 71 1023.0
20220516085938 49 225 0.0 0.0 0.00 0.00 0.00 73 1023.0
20220516085438 49 220 0.0 0.0 0.00 0.00 0.00 71 1022.9
20220516084937 49 222 0.0 0.0 0.00 0.00 0.00 71 1023.0
20220516084437 49 222 0.0 0.0 0.00 0.00 0.00 70 1023.3
20220516083936 50 210 0.0 1.0 0.00 0.00 0.00 70 1023.0
20220516083435 50 209 0.0 0.0 0.00 0.00 0.00 69 1023.5
20220516082934 50 223 0.0 0.0 0.00 0.00 0.00 68 1023.3
20220516082434 50 226 0.0 0.0 0.00 0.00 0.00 68 1023.6
20220516081933 50 231 0.0 0.0 0.00 0.00 0.00 68 1023.3
20220516081432 50 225 0.0 0.0 0.00 0.00 0.00 71 1023.3
20220516080933 50 222 0.0 0.0 0.00 0.00 0.00 69 1023.6
20220516080431 50 221 0.0 0.0 0.00 0.00 0.00 68 1023.7
20220516075930 51 222 0.0 0.0 0.00 0.00 0.00 69 1023.6
20220516075429 51 221 0.0 0.0 0.00 0.00 0.00 68 1023.9
20220516074928 51 236 0.0 0.0 0.00 0.00 0.00 67 1024.0
20220516074428 51 216 0.0 0.0 0.00 0.00 0.00 67 1023.7
20220516073927 51 246 0.0 0.0 0.00 0.00 0.00 65 1023.9
20220516073426 51 255 0.0 0.0 0.00 0.00 0.00 66 1023.9
20220516072925 51 256 0.0 0.0 0.00 0.00 0.00 65 1024.0
20220516072424 52 222 0.0 0.0 0.00 0.00 0.00 64 1024.0
20220516071924 53 229 0.0 0.0 0.00 0.00 0.00 63 1024.3
20220516071423 53 317 1.0 1.0 0.00 0.00 0.00 63 1024.2
20220516070921 52 258 0.0 0.0 0.00 0.00 0.00 64 1024.4
20220516070420 52 242 0.0 0.0 0.00 0.00 0.00 64 1024.7
20220516065919 53 222 0.0 0.0 0.00 0.00 0.00 62 1024.6
20220516065418 53 221 0.0 0.0 0.00 0.00 0.00 60 1024.6
20220516064916 53 221 0.0 0.0 0.00 0.00 0.00 60 1024.7
20220516064415 54 250 0.0 0.0 0.00 0.00 0.00 58 1024.3
20220516063913 54 239 1.0 1.0 0.00 0.00 0.00 57 1024.7
20220516063412 54 221 0.0 0.0 0.00 0.00 0.00 57 1024.6
20220516062911 54 221 0.0 0.0 0.00 0.00 0.00 56 1024.9
20220516062410 55 201 0.0 0.0 0.00 0.00 0.00 56 1024.7
20220516061911 55 245 0.0 0.0 0.00 0.00 0.00 57 1024.8
20220516061410 55 248 0.0 0.0 0.00 0.00 0.00 54 1024.8
20220516060909 55 224 0.0 0.0 0.00 0.00 0.00 53 1025.0
20220516060407 56 223 0.0 0.0 0.00 0.00 0.00 53 1025.0
20220516055906 56 214 0.0 0.0 0.00 0.00 0.00 52 1025.3
20220516055406 57 216 0.0 0.0 0.00 0.00 0.00 52 1025.1
20220516054904 57 225 0.0 0.0 0.00 0.00 0.00 51 1024.9
20220516054403 57 220 0.0 0.0 0.00 0.00 0.00 51 1025.0
20220516053902 57 181 0.0 1.0 0.00 0.00 0.00 51 1025.3
20220516053400 58 223 0.0 0.0 0.00 0.00 0.00 49 1025.1
20220516052900 58 232 0.0 0.0 0.00 0.00 0.00 48 1025.3
20220516052359 58 254 0.0 0.0 0.00 0.00 0.00 48 1025.4
20220516051858 58 258 0.0 0.0 0.00 0.00 0.00 49 1025.1
20220516051357 58 225 0.0 0.0 0.00 0.00 0.00 49 1025.7
20220516050857 59 220 0.0 0.0 0.00 0.00 0.00 48 1025.5
20220516050355 59 212 0.0 0.0 0.00 0.00 0.00 47 1025.6
20220516045854 59 235 0.0 0.0 0.00 0.00 0.00 47 1025.5
20220516045352 59 195 0.0 0.0 0.00 0.00 0.00 48 1025.7
20220516044851 60 225 0.0 0.0 0.00 0.00 0.00 47 1025.6
20220516044350 60 233 0.0 0.0 0.00 0.00 0.00 45 1025.6
20220516043849 61 216 0.0 0.0 0.00 0.00 0.00 44 1025.6
20220516043348 61 217 0.0 0.0 0.00 0.00 0.00 43 1025.6
20220516042848 62 225 0.0 0.0 0.00 0.00 0.00 42 1025.6
20220516042348 63 212 0.0 1.0 0.00 0.00 0.00 40 1025.6
20220516041847 63 242 0.0 0.0 0.00 0.00 0.00 38 1025.5
20220516041346 64 246 0.0 0.0 0.00 0.00 0.00 38 1025.3
20220516040845 64 282 1.0 1.0 0.00 0.00 0.00 38 1025.0
20220516040344 64 248 1.0 1.0 0.00 0.00 0.00 37 1025.1
20220516035843 64 302 2.0 2.0 0.00 0.00 0.00 38 1025.4
20220516035342 64 303 0.0 0.0 0.00 0.00 0.00 38 1024.9
20220516034840 64 259 1.0 1.0 0.00 0.00 0.00 38 1024.8
20220516034339 64 259 1.0 1.0 0.00 0.00 0.00 38 1025.1
20220516033837 64 303 3.0 5.0 0.00 0.00 0.00 38 1024.8
20220516033336 64 286 2.0 2.0 0.00 0.00 0.00 39 1024.8
20220516032835 64 258 3.0 3.0 0.00 0.00 0.00 38 1024.6
20220516032334 65 328 1.0 2.0 0.00 0.00 0.00 38 1024.6
20220516031831 65 259 1.0 1.0 0.00 0.00 0.00 38 1024.4
20220516031330 65 237 0.0 0.0 0.00 0.00 0.00 37 1024.4
20220516030829 66 88 1.0 1.0 0.00 0.00 0.00 37 1024.6
20220516030327 66 191 0.0 1.0 0.00 0.00 0.00 36 1024.4
20220516025827 67 324 1.0 2.0 0.00 0.00 0.00 35 1024.4
20220516025326 67 70 3.0 5.0 0.00 0.00 0.00 35 1024.2
20220516024824 68 46 1.0 2.0 0.00 0.00 0.00 35 1024.3
20220516024323 68 318 0.0 1.0 0.00 0.00 0.00 35 1024.2
20220516023820 68 301 0.0 1.0 0.00 0.00 0.00 34 1024.4
20220516023321 68 218 0.0 0.0 0.00 0.00 0.00 35 1024.3
20220516022820 68 318 0.0 0.0 0.00 0.00 0.00 34 1024.0
20220516022319 69 255 0.0 0.0 0.00 0.00 0.00 34 1024.2
20220516021819 69 271 0.0 0.0 0.00 0.00 0.00 34 1024.4
20220516021318 69 247 0.0 0.0 0.00 0.00 0.00 33 1024.2
20220516020818 70 326 0.0 0.0 0.00 0.00 0.00 33 1024.2
20220516020317 70 262 0.0 0.0 0.00 0.00 0.00 33 1024.1
20220516015816 71 40 2.0 2.0 0.00 0.00 0.00 32 1024.3
20220516015315 71 50 2.0 2.0 0.00 0.00 0.00 31 1024.2
20220516014815 71 68 1.0 2.0 0.00 0.00 0.00 31 1024.1
20220516014314 72 123 1.0 2.0 0.00 0.00 0.00 31 1024.0
20220516013813 72 165 1.0 1.0 0.00 0.00 0.00 31 1023.9
20220516013312 73 10 0.0 1.0 0.00 0.00 0.00 30 1023.7
20220516012811 73 139 2.0 2.0 0.00 0.00 0.00 30 1023.7
20220516012311 74 193 0.0 1.0 0.00 0.00 0.00 30 1023.9
20220516011810 73 253 0.0 1.0 0.00 0.00 0.00 30 1023.9
20220516011309 73 230 1.0 2.0 0.00 0.00 0.00 29 1023.7
20220516010807 73 29 3.0 6.0 0.00 0.00 0.00 30 1023.4
20220516010306 73 350 2.0 2.0 0.00 0.00 0.00 30 1023.7
20220516005804 73 50 2.0 3.0 0.00 0.00 0.00 30 1023.9
20220516005305 73 302 2.0 2.0 0.00 0.00 0.00 30 1023.7
20220516004801 73 262 0.0 1.0 0.00 0.00 0.00 30 1023.6
20220516004300 73 98 0.0 0.0 0.00 0.00 0.00 29 1023.7
20220516003758 74 310 1.0 2.0 0.00 0.00 0.00 29 1023.7
20220516003259 75 249 1.0 1.0 0.00 0.00 0.00 28 1023.7
20220516002758 76 53 1.0 1.0 0.00 0.00 0.00 28 1023.5
20220516002258 76 250 1.0 1.0 0.00 0.00 0.00 27 1023.7
20220516001757 77 137 5.0 6.0 0.00 0.00 0.00 27 1023.9
20220516001256 77 81 2.0 3.0 0.00 0.00 0.00 27 1024.0
20220516000757 77 52 1.0 1.0 0.00 0.00 0.00 26 1024.1
20220516000255 77 141 3.0 5.0 0.00 0.00 0.00 27 1024.0
20220515235754 78 51 3.0 3.0 0.00 0.00 0.00 27 1023.9
20220515235254 77 349 0.0 1.0 0.00 0.00 0.00 26 1023.9
20220515234752 78 74 2.0 3.0 0.00 0.00 0.00 26 1023.6
20220515234252 77 221 2.0 2.0 0.00 0.00 0.00 26 1024.0
20220515233751 76 9 1.0 1.0 0.00 0.00 0.00 27 1023.7
20220515233249 77 287 2.0 3.0 0.00 0.00 0.00 27 1023.5
20220515232749 78 124 4.0 7.0 0.00 0.00 0.00 26 1023.7
20220515232248 77 282 0.0 1.0 0.00 0.00 0.00 26 1023.6
20220515231748 76 227 0.0 1.0 0.00 0.00 0.00 27 1023.7
20220515231246 77 145 1.0 2.0 0.00 0.00 0.00 26 1023.9
20220515230746 77 133 3.0 5.0 0.00 0.00 0.00 26 1023.9
20220515230245 76 111 2.0 2.0 0.00 0.00 0.00 27 1024.1
20220515225743 78 278 1.0 2.0 0.00 0.00 0.00 26 1023.7
20220515225243 79 149 1.0 1.0 0.00 0.00 0.00 25 1024.0
20220515224741 78 120 4.0 7.0 0.00 0.00 0.00 25 1023.9
20220515224240 78 300 1.0 2.0 0.00 0.00 0.00 26 1024.0
20220515223740 78 9 1.0 1.0 0.00 0.00 0.00 25 1023.9
20220515223239 79 166 1.0 1.0 0.00 0.00 0.00 25 1024.2
20220515222737 79 26 4.0 6.0 0.00 0.00 0.00 25 1024.2
20220515222236 79 103 1.0 2.0 0.00 0.00 0.00 25 1024.1
20220515221735 80 71 1.0 1.0 0.00 0.00 0.00 24 1024.0
20220515221235 79 259 0.0 1.0 0.00 0.00 0.00 25 1024.6
20220515220734 81 95 1.0 2.0 0.00 0.00 0.00 24 1024.4
20220515220232 79 217 2.0 2.0 0.00 0.00 0.00 25 1024.3
20220515215731 80 95 1.0 2.0 0.00 0.00 0.00 25 1024.2
20220515215229 78 231 1.0 2.0 0.00 0.00 0.00 25 1024.3
20220515214730 77 66 3.0 3.0 0.00 0.00 0.00 26 1024.6
20220515214228 80 255 0.0 1.0 0.00 0.00 0.00 24 1024.4
20220515213727 79 231 0.0 1.0 0.00 0.00 0.00 25 1024.6
20220515213227 76 227 0.0 1.0 0.00 0.00 0.00 27 1024.7
20220515212725 77 86 2.0 2.0 0.00 0.00 0.00 26 1024.9
20220515212224 78 31 3.0 3.0 0.00 0.00 0.00 26 1025.0
20220515211723 77 95 2.0 2.0 0.00 0.00 0.00 27 1025.4
20220515211222 77 19 1.0 1.0 0.00 0.00 0.00 27 1025.1
20220515210719 77 353 1.0 1.0 0.00 0.00 0.00 28 1025.1
20220515210218 75 215 3.0 3.0 0.00 0.00 0.00 27 1025.4
20220515205717 76 62 1.0 2.0 0.00 0.00 0.00 27 1025.6
20220515205215 76 226 1.0 1.0 0.00 0.00 0.00 27 1025.7